createdAt,value
2022-12-03T00:02:13.526Z,2.54
2022-12-03T00:04:39.995Z,2.55
2022-12-03T00:07:06.387Z,2.56
2022-12-03T00:09:32.731Z,2.56
2022-12-03T00:11:59.172Z,2.56
2022-12-03T00:14:25.507Z,2.59
2022-12-03T00:16:51.868Z,2.60
2022-12-03T00:19:18.242Z,2.61
2022-12-03T00:21:44.570Z,2.63
2022-12-03T00:24:10.899Z,2.63
2022-12-03T00:26:37.363Z,2.61
2022-12-03T00:29:03.864Z,2.62
2022-12-03T00:31:30.269Z,2.59
2022-12-03T00:33:56.652Z,2.57
2022-12-03T00:36:23.093Z,2.57
2022-12-03T00:38:49.407Z,2.59
2022-12-03T00:41:15.889Z,2.57
2022-12-03T00:43:42.267Z,2.60
2022-12-03T00:46:08.739Z,2.60
2022-12-03T00:48:35.267Z,2.60
2022-12-03T00:51:01.675Z,2.61
2022-12-03T00:53:28.140Z,2.60
2022-12-03T00:55:54.515Z,2.60
2022-12-03T00:58:20.854Z,2.59
2022-12-03T01:00:47.213Z,2.56
2022-12-03T01:03:13.617Z,2.59
2022-12-03T01:05:39.971Z,2.56
2022-12-03T01:08:06.362Z,2.53
2022-12-03T01:10:32.756Z,2.56
2022-12-03T01:12:59.152Z,2.53
2022-12-03T01:15:25.509Z,2.55
2022-12-03T01:17:54.224Z,2.52
2022-12-03T01:20:20.943Z,2.53
2022-12-03T01:22:47.293Z,2.51
2022-12-03T01:25:13.714Z,2.54
2022-12-03T01:27:40.062Z,2.53
2022-12-03T01:30:07.308Z,2.53
2022-12-03T01:32:33.730Z,2.52
2022-12-03T01:35:00.242Z,2.53
2022-12-03T01:37:27.282Z,2.51
2022-12-03T01:39:53.686Z,2.52
2022-12-03T01:42:33.703Z,2.52
2022-12-03T01:45:00.672Z,2.51
2022-12-03T01:47:33.434Z,2.53
2022-12-03T01:50:15.444Z,2.54
2022-12-03T01:52:42.510Z,2.54
2022-12-03T01:55:14.762Z,2.54
2022-12-03T01:57:50.097Z,2.55
2022-12-03T02:00:19.095Z,2.58
2022-12-03T02:02:48.162Z,2.57
2022-12-03T02:05:20.932Z,2.60
2022-12-03T02:07:47.442Z,2.59
2022-12-03T02:10:16.917Z,2.58
2022-12-03T02:12:49.914Z,2.59
2022-12-03T02:15:16.686Z,2.60
2022-12-03T02:17:43.252Z,2.59
2022-12-03T02:20:11.494Z,2.60
2022-12-03T02:22:45.674Z,2.63
2022-12-03T02:25:18.150Z,2.62
2022-12-03T02:27:45.486Z,2.59
2022-12-03T02:30:13.921Z,2.59
2022-12-03T02:32:40.671Z,2.61
2022-12-03T02:35:13.863Z,2.61
2022-12-03T02:37:41.696Z,2.64
2022-12-03T02:40:12.374Z,2.66
2022-12-03T02:42:39.311Z,2.66
2022-12-03T02:45:20.745Z,2.69
2022-12-03T02:47:51.726Z,2.69
2022-12-03T02:50:21.943Z,2.66
2022-12-03T02:52:49.262Z,2.68
2022-12-03T02:55:17.166Z,2.68
2022-12-03T02:57:46.801Z,2.68
2022-12-03T03:00:13.930Z,2.70
2022-12-03T03:02:41.697Z,2.69
2022-12-03T03:05:11.688Z,2.63
2022-12-03T03:07:39.494Z,2.64
2022-12-03T03:10:09.198Z,2.66
2022-12-03T03:12:39.203Z,2.69
2022-12-03T03:15:08.002Z,2.71
2022-12-03T03:17:34.386Z,2.73
2022-12-03T03:20:01.032Z,2.75
2022-12-03T03:22:35.589Z,2.74
2022-12-03T03:25:02.890Z,2.74
2022-12-03T03:27:29.785Z,2.74
2022-12-03T03:29:58.355Z,2.75
2022-12-03T03:32:26.635Z,2.75
2022-12-03T03:34:53.397Z,2.74
2022-12-03T03:37:20.118Z,2.74
2022-12-03T03:39:46.684Z,2.74
2022-12-03T03:42:13.160Z,2.75
2022-12-03T03:44:39.630Z,2.75
2022-12-03T03:47:06.244Z,2.70
2022-12-03T03:49:32.889Z,2.71
2022-12-03T03:51:59.418Z,2.71
2022-12-03T03:54:25.962Z,2.74
2022-12-03T03:56:52.563Z,2.76
2022-12-03T03:59:19.006Z,2.77
2022-12-03T04:01:46.205Z,2.78
2022-12-03T04:04:21.312Z,2.76
2022-12-03T04:06:47.875Z,2.77
2022-12-03T04:09:14.669Z,2.77
2022-12-03T04:12:00.131Z,2.77
2022-12-03T04:14:26.504Z,2.75
2022-12-03T04:16:52.871Z,2.75
2022-12-03T04:19:19.287Z,2.79
2022-12-03T04:22:04.470Z,2.80
2022-12-03T04:24:30.864Z,2.78
2022-12-03T04:27:15.855Z,2.78
2022-12-03T04:29:42.227Z,2.79
2022-12-03T04:32:27.269Z,2.79
2022-12-03T04:35:12.144Z,2.78
2022-12-03T04:37:38.564Z,2.78
2022-12-03T04:40:25.776Z,2.80
2022-12-03T04:42:52.140Z,2.82
2022-12-03T04:45:18.491Z,2.82
2022-12-03T04:47:44.986Z,2.78
2022-12-03T04:50:11.526Z,2.77
2022-12-03T04:52:37.875Z,2.77
2022-12-03T04:55:04.495Z,2.77
2022-12-03T04:57:30.849Z,2.79
2022-12-03T04:59:57.227Z,2.77
2022-12-03T05:02:23.854Z,2.76
2022-12-03T05:04:50.407Z,2.78
2022-12-03T05:07:16.945Z,2.81
2022-12-03T05:09:43.297Z,2.82
2022-12-03T05:12:09.649Z,2.83
2022-12-03T05:14:35.990Z,2.83
2022-12-03T05:17:02.416Z,2.82
2022-12-03T05:19:47.542Z,2.80
2022-12-03T05:22:13.907Z,2.79
2022-12-03T05:24:40.254Z,2.78
2022-12-03T05:27:06.600Z,2.74
2022-12-03T05:29:33.243Z,2.69
2022-12-03T05:31:59.577Z,2.70
2022-12-03T05:34:25.946Z,2.72
2022-12-03T05:36:52.303Z,2.70
2022-12-03T05:39:18.655Z,2.70
2022-12-03T05:42:03.638Z,2.66
2022-12-03T05:44:30.011Z,2.68
2022-12-03T05:46:56.367Z,2.69
2022-12-03T05:49:22.791Z,2.71
2022-12-03T05:51:52.470Z,2.70
2022-12-03T05:54:21.488Z,2.70
2022-12-03T05:56:47.835Z,2.65
2022-12-03T05:59:14.286Z,2.64
2022-12-03T06:01:40.631Z,2.64
2022-12-03T06:04:07.094Z,2.65
2022-12-03T06:06:33.476Z,2.67
2022-12-03T06:08:59.872Z,2.68
2022-12-03T06:11:26.227Z,2.64
2022-12-03T06:13:52.570Z,2.64
2022-12-03T06:16:18.945Z,2.68
2022-12-03T06:18:45.359Z,2.68
2022-12-03T06:21:11.744Z,2.71
2022-12-03T06:23:44.386Z,2.72
2022-12-03T06:26:11.947Z,2.72
2022-12-03T06:28:38.278Z,2.71
2022-12-03T06:31:04.905Z,2.69
2022-12-03T06:33:31.323Z,2.63
2022-12-03T06:35:57.671Z,2.61
2022-12-03T06:38:24.015Z,2.60
2022-12-03T06:40:50.378Z,2.60
2022-12-03T06:43:16.728Z,2.63
2022-12-03T06:45:47.547Z,2.64
2022-12-03T06:48:14.546Z,2.65
2022-12-03T06:50:40.932Z,2.67
2022-12-03T06:53:07.287Z,2.66
2022-12-03T06:55:33.625Z,2.65
2022-12-03T06:57:59.973Z,2.68
2022-12-03T07:00:26.360Z,2.64
2022-12-03T07:02:52.823Z,2.65
2022-12-03T07:05:19.956Z,2.65
2022-12-03T07:07:51.962Z,2.65
2022-12-03T07:10:19.215Z,2.63
2022-12-03T07:12:45.563Z,2.63
2022-12-03T07:15:12.092Z,2.62
2022-12-03T07:17:38.575Z,2.61
2022-12-03T07:20:05.842Z,2.60
2022-12-03T07:22:32.284Z,2.59
2022-12-03T07:24:58.727Z,2.58
2022-12-03T07:27:25.131Z,2.50
2022-12-03T07:29:51.666Z,2.46
2022-12-03T07:32:18.031Z,2.44
2022-12-03T07:34:44.370Z,2.46
2022-12-03T07:37:10.748Z,2.48
2022-12-03T07:39:37.139Z,2.46
2022-12-03T07:42:03.835Z,2.46
2022-12-03T07:44:31.773Z,2.48
2022-12-03T07:46:58.584Z,2.49
2022-12-03T07:49:26.623Z,2.47
2022-12-03T07:51:56.972Z,2.48
2022-12-03T07:54:24.554Z,2.49
2022-12-03T07:56:50.943Z,2.48
2022-12-03T07:59:17.536Z,2.50
2022-12-03T08:01:44.025Z,2.48
2022-12-03T08:04:12.839Z,2.45
2022-12-03T08:06:39.214Z,2.46
2022-12-03T08:09:05.611Z,2.47
2022-12-03T08:11:32.879Z,2.46
2022-12-03T08:13:59.236Z,2.46
2022-12-03T08:16:26.094Z,2.47
2022-12-03T08:18:54.787Z,2.49
2022-12-03T08:21:21.845Z,2.47
2022-12-03T08:23:48.851Z,2.48
2022-12-03T08:26:28.295Z,2.49
2022-12-03T08:28:54.868Z,2.51
2022-12-03T08:31:32.264Z,2.50
2022-12-03T08:34:15.553Z,2.46
2022-12-03T08:36:42.021Z,2.42
2022-12-03T08:39:28.351Z,2.43
2022-12-03T08:42:18.443Z,2.41
2022-12-03T08:44:44.891Z,2.38
2022-12-03T08:47:22.688Z,2.38
2022-12-03T08:50:23.490Z,2.36
2022-12-03T08:52:49.979Z,2.36
2022-12-03T08:55:36.105Z,2.39
2022-12-03T08:58:23.306Z,2.39
2022-12-03T09:01:02.832Z,2.36
2022-12-03T09:03:31.738Z,2.38
2022-12-03T09:05:58.143Z,2.40
2022-12-03T09:08:24.482Z,2.43
2022-12-03T09:10:50.846Z,2.43
2022-12-03T09:13:17.196Z,2.38
2022-12-03T09:15:43.588Z,2.29
2022-12-03T09:18:10.053Z,2.29
2022-12-03T09:20:36.418Z,2.30
2022-12-03T09:23:02.882Z,2.33
2022-12-03T09:25:29.326Z,2.34
2022-12-03T09:27:55.659Z,2.33
2022-12-03T09:30:22.073Z,2.27
2022-12-03T09:32:48.467Z,2.24
2022-12-03T09:35:14.948Z,2.29
2022-12-03T09:37:41.324Z,2.27
2022-12-03T09:40:08.604Z,2.27
2022-12-03T09:42:35.399Z,2.22
2022-12-03T09:45:03.471Z,2.18
2022-12-03T09:47:31.783Z,2.15
2022-12-03T09:49:58.770Z,2.16
2022-12-03T09:52:28.342Z,2.17
2022-12-03T09:54:55.259Z,2.13
2022-12-03T09:57:21.891Z,2.17
2022-12-03T09:59:48.382Z,2.12
2022-12-03T10:02:31.282Z,2.02
2022-12-03T10:04:58.309Z,2.01
2022-12-03T10:07:25.377Z,1.99
2022-12-03T10:09:52.260Z,2.03
2022-12-03T10:12:24.497Z,2.06
2022-12-03T10:14:52.201Z,2.07
2022-12-03T10:17:18.921Z,2.11
2022-12-03T10:19:45.521Z,2.13
2022-12-03T10:22:11.892Z,2.15
2022-12-03T10:24:38.682Z,2.10
2022-12-03T10:27:20.834Z,2.08
2022-12-03T10:29:56.042Z,2.05
2022-12-03T10:32:45.967Z,2.10
2022-12-03T10:35:23.440Z,2.02
2022-12-03T10:38:05.188Z,1.98
2022-12-03T10:40:32.604Z,1.98
2022-12-03T10:43:26.745Z,2.03
2022-12-03T10:46:03.562Z,1.97
2022-12-03T10:48:30.794Z,1.98
2022-12-03T10:51:04.074Z,2.01
2022-12-03T10:53:33.875Z,1.97
2022-12-03T10:56:03.631Z,2.01
2022-12-03T10:58:38.998Z,2.01
2022-12-03T11:01:20.192Z,2.02
2022-12-03T11:03:47.652Z,1.96
2022-12-03T11:06:16.553Z,1.93
2022-12-03T11:08:45.777Z,1.89
2022-12-03T11:11:15.118Z,1.86
2022-12-03T11:13:41.451Z,1.84
2022-12-03T11:16:10.728Z,1.78
2022-12-03T11:18:37.204Z,1.81
2022-12-03T11:21:05.540Z,1.82
2022-12-03T11:23:44.074Z,1.83
2022-12-03T11:26:19.475Z,1.83
2022-12-03T11:28:46.110Z,1.82
2022-12-03T11:31:44.895Z,1.88
2022-12-03T11:34:20.595Z,1.83
2022-12-03T11:37:11.895Z,1.84
2022-12-03T11:40:24.754Z,1.87
2022-12-03T11:42:51.123Z,1.87
2022-12-03T11:45:32.020Z,1.87
2022-12-03T11:47:58.332Z,1.83
2022-12-03T11:50:37.783Z,1.83
2022-12-03T11:53:16.603Z,1.84
2022-12-03T11:55:51.911Z,1.86
2022-12-03T11:58:29.037Z,1.89
2022-12-03T12:00:57.835Z,1.88
2022-12-03T12:03:46.249Z,1.90
2022-12-03T12:06:15.759Z,1.91
2022-12-03T12:08:51.199Z,1.94
2022-12-03T12:11:19.749Z,1.90
2022-12-03T12:13:50.152Z,1.90
2022-12-03T12:16:35.728Z,1.91
2022-12-03T12:19:34.420Z,1.90
2022-12-03T12:22:27.349Z,1.88
2022-12-03T12:25:01.843Z,1.89
2022-12-03T12:27:49.421Z,1.87
2022-12-03T12:30:21.698Z,1.85
2022-12-03T12:33:12.579Z,1.85
2022-12-03T12:35:38.948Z,1.82
2022-12-03T12:38:10.757Z,1.85
2022-12-03T12:40:39.981Z,1.77
2022-12-03T12:43:20.295Z,1.76
2022-12-03T12:45:52.222Z,1.74
2022-12-03T12:48:23.076Z,1.74
2022-12-03T12:51:01.631Z,1.72
2022-12-03T12:53:33.319Z,1.74
2022-12-03T12:56:31.424Z,1.75
2022-12-03T12:59:09.238Z,1.73
2022-12-03T13:01:36.390Z,1.67
2022-12-03T13:04:11.626Z,1.68
2022-12-03T13:06:38.607Z,1.72
2022-12-03T13:09:12.993Z,1.75
2022-12-03T13:11:45.438Z,1.81
2022-12-03T13:14:16.922Z,1.83
2022-12-03T13:16:44.208Z,1.84
2022-12-03T13:19:23.603Z,1.82
2022-12-03T13:21:52.367Z,1.80
2022-12-03T13:24:35.819Z,1.79
2022-12-03T13:27:19.673Z,1.80
2022-12-03T13:29:49.512Z,1.79
2022-12-03T13:32:19.412Z,1.80
2022-12-03T13:34:46.693Z,1.82
2022-12-03T13:37:22.348Z,1.81
2022-12-03T13:39:55.111Z,1.80
2022-12-03T13:42:46.478Z,1.81
2022-12-03T13:45:18.941Z,1.81
2022-12-03T13:48:08.634Z,1.82
2022-12-03T13:50:36.691Z,1.79
2022-12-03T13:53:15.835Z,1.77
2022-12-03T13:55:47.671Z,1.72
2022-12-03T13:58:14.014Z,1.70
2022-12-03T14:00:40.447Z,1.64
2022-12-03T14:03:06.793Z,1.60
2022-12-03T14:05:33.275Z,1.61
2022-12-03T14:08:02.290Z,1.59
2022-12-03T14:10:29.443Z,1.59
2022-12-03T14:12:56.435Z,1.55
2022-12-03T14:15:22.975Z,1.54
2022-12-03T14:17:49.362Z,1.55
2022-12-03T14:20:15.871Z,1.57
2022-12-03T14:22:42.350Z,1.56
2022-12-03T14:25:08.903Z,1.56
2022-12-03T14:27:35.266Z,1.55
2022-12-03T14:30:01.650Z,1.54
2022-12-03T14:32:28.418Z,1.51
2022-12-03T14:34:54.846Z,1.53
2022-12-03T14:37:21.195Z,1.55
2022-12-03T14:39:47.586Z,1.53
2022-12-03T14:42:13.933Z,1.55
2022-12-03T14:44:42.419Z,1.55
2022-12-03T14:47:09.575Z,1.57
2022-12-03T14:49:35.963Z,1.53
2022-12-03T14:52:02.318Z,1.53
2022-12-03T14:54:28.675Z,1.57
2022-12-03T14:56:55.167Z,1.51
2022-12-03T14:59:27.228Z,1.51
2022-12-03T15:01:54.128Z,1.50
2022-12-03T15:04:20.703Z,1.51
2022-12-03T15:06:47.068Z,1.53
2022-12-03T15:09:13.719Z,1.54
2022-12-03T15:11:45.754Z,1.53
2022-12-03T15:14:12.625Z,1.54
2022-12-03T15:16:39.059Z,1.53
2022-12-03T15:19:05.487Z,1.53
2022-12-03T15:21:34.798Z,1.54
2022-12-03T15:24:02.136Z,1.51
2022-12-03T15:26:28.847Z,1.50
2022-12-03T15:28:55.180Z,1.48
2022-12-03T15:31:21.730Z,1.46
2022-12-03T15:33:48.185Z,1.47
2022-12-03T15:36:14.825Z,1.47
2022-12-03T15:38:41.290Z,1.49
2022-12-03T15:41:27.055Z,1.47
2022-12-03T15:43:53.425Z,1.47
2022-12-03T15:46:20.212Z,1.46
2022-12-03T15:48:47.813Z,1.43
2022-12-03T15:51:14.440Z,1.43
2022-12-03T15:53:41.288Z,1.41
2022-12-03T15:56:07.840Z,1.39
2022-12-03T15:58:34.689Z,1.39
2022-12-03T16:01:01.369Z,1.39
2022-12-03T16:03:28.070Z,1.39
2022-12-03T16:05:54.645Z,1.43
2022-12-03T16:08:21.391Z,1.40
2022-12-03T16:10:47.888Z,1.36
2022-12-03T16:13:14.258Z,1.34
2022-12-03T16:15:40.667Z,1.35
2022-12-03T16:18:07.096Z,1.37
2022-12-03T16:20:34.059Z,1.36
2022-12-03T16:23:00.418Z,1.35
2022-12-03T16:25:26.879Z,1.35
2022-12-03T16:27:53.231Z,1.36
2022-12-03T16:30:19.673Z,1.36
2022-12-03T16:32:46.049Z,1.37
2022-12-03T16:35:12.393Z,1.32
2022-12-03T16:37:38.903Z,1.35
2022-12-03T16:40:06.084Z,1.34
2022-12-03T16:42:32.515Z,1.35
2022-12-03T16:45:04.488Z,1.32
2022-12-03T16:47:34.039Z,1.34
2022-12-03T16:50:05.346Z,1.27
2022-12-03T16:52:31.708Z,1.27
2022-12-03T16:54:58.081Z,1.25
2022-12-03T16:57:27.594Z,1.27
2022-12-03T16:59:56.770Z,1.27
2022-12-03T17:02:24.636Z,1.26
2022-12-03T17:04:51.099Z,1.28
2022-12-03T17:07:32.644Z,1.28
2022-12-03T17:09:59.041Z,1.24
2022-12-03T17:12:25.622Z,1.26
2022-12-03T17:14:56.442Z,1.27
2022-12-03T17:17:22.970Z,1.23
2022-12-03T17:19:50.335Z,1.20
2022-12-03T17:22:16.718Z,1.16
2022-12-03T17:24:43.175Z,1.20
2022-12-03T17:27:09.718Z,1.21
2022-12-03T17:29:36.073Z,1.21
2022-12-03T17:32:03.007Z,1.22
2022-12-03T17:34:29.469Z,1.22
2022-12-03T17:36:55.856Z,1.20
2022-12-03T17:39:22.319Z,1.21
2022-12-03T17:41:48.663Z,1.21
2022-12-03T17:44:19.461Z,1.18
2022-12-03T17:46:47.656Z,1.22
2022-12-03T17:49:14.069Z,1.24
2022-12-03T17:51:40.507Z,1.22
2022-12-03T17:54:07.268Z,1.21
2022-12-03T17:56:33.787Z,1.21
2022-12-03T17:59:00.147Z,1.19
2022-12-03T18:01:26.557Z,1.18
2022-12-03T18:03:53.017Z,1.16
2022-12-03T18:06:19.419Z,1.15
2022-12-03T18:08:45.796Z,1.17
2022-12-03T18:11:12.292Z,1.17
2022-12-03T18:13:38.701Z,1.14
2022-12-03T18:16:05.544Z,1.13
2022-12-03T18:18:31.918Z,1.13
2022-12-03T18:21:02.021Z,1.15
2022-12-03T18:23:29.064Z,1.17
2022-12-03T18:25:55.865Z,1.14
2022-12-03T18:28:22.895Z,1.16
2022-12-03T18:30:52.802Z,1.14
2022-12-03T18:33:19.851Z,1.15
2022-12-03T18:35:46.199Z,1.16
2022-12-03T18:38:15.159Z,1.14
2022-12-03T18:40:43.794Z,1.16
2022-12-03T18:43:15.892Z,1.16
2022-12-03T18:45:42.761Z,1.16
2022-12-03T18:48:12.668Z,1.15
2022-12-03T18:50:39.724Z,1.13
2022-12-03T18:53:07.690Z,1.11
2022-12-03T18:55:35.208Z,1.11
2022-12-03T18:58:01.772Z,1.10
2022-12-03T19:00:28.170Z,1.12
2022-12-03T19:03:03.142Z,1.13
2022-12-03T19:05:32.540Z,1.12
2022-12-03T19:07:59.349Z,1.11
2022-12-03T19:10:25.931Z,1.13
2022-12-03T19:12:52.310Z,1.16
2022-12-03T19:15:18.790Z,1.17
2022-12-03T19:17:49.647Z,1.15
2022-12-03T19:20:16.300Z,1.13
2022-12-03T19:22:42.662Z,1.12
2022-12-03T19:25:09.259Z,1.12
2022-12-03T19:27:35.630Z,1.09
2022-12-03T19:30:02.000Z,1.09
2022-12-03T19:32:28.399Z,1.07
2022-12-03T19:34:54.799Z,1.09
2022-12-03T19:37:21.156Z,1.06
2022-12-03T19:39:47.516Z,1.09
2022-12-03T19:42:13.886Z,1.09
2022-12-03T19:44:40.259Z,1.08
2022-12-03T19:47:06.659Z,1.08
2022-12-03T19:49:33.035Z,1.07
2022-12-03T19:51:59.397Z,1.05
2022-12-03T19:54:25.807Z,1.03
2022-12-03T19:56:52.286Z,1.01
2022-12-03T19:59:18.694Z,0.99
2022-12-03T20:01:45.205Z,1.03
2022-12-03T20:04:12.693Z,0.97
2022-12-03T20:06:39.285Z,0.95
2022-12-03T20:09:08.593Z,0.96
2022-12-03T20:11:35.467Z,1.00
2022-12-03T20:14:05.154Z,0.99
2022-12-03T20:16:31.708Z,0.96
2022-12-03T20:19:00.158Z,0.94
2022-12-03T20:21:28.297Z,0.98
2022-12-03T20:23:54.767Z,0.97
2022-12-03T20:26:22.100Z,1.00
2022-12-03T20:28:49.148Z,0.99
2022-12-03T20:31:18.608Z,0.96
2022-12-03T20:33:47.411Z,0.96
2022-12-03T20:36:15.380Z,0.97
2022-12-03T20:38:41.859Z,0.94
2022-12-03T20:41:11.499Z,0.94
2022-12-03T20:43:38.436Z,0.93
2022-12-03T20:46:23.924Z,0.95
2022-12-03T20:48:50.318Z,0.96
2022-12-03T20:51:19.819Z,0.93
2022-12-03T20:53:46.911Z,0.95
2022-12-03T20:56:34.580Z,0.95
2022-12-03T20:59:04.868Z,0.97
2022-12-03T21:01:31.331Z,0.95
2022-12-03T21:03:58.369Z,0.94
2022-12-03T21:06:27.776Z,0.93
2022-12-03T21:08:55.256Z,0.91
2022-12-03T21:11:24.177Z,0.90
2022-12-03T21:13:51.238Z,0.90
2022-12-03T21:16:34.171Z,0.91
2022-12-03T21:19:07.943Z,0.91
2022-12-03T21:21:36.442Z,0.84
2022-12-03T21:24:03.028Z,0.84
2022-12-03T21:26:29.432Z,0.86
2022-12-03T21:28:55.975Z,0.85
2022-12-03T21:31:25.717Z,0.86
2022-12-03T21:33:56.524Z,0.88
2022-12-03T21:36:23.346Z,0.86
2022-12-03T21:38:49.697Z,0.85
2022-12-03T21:41:16.560Z,0.84
2022-12-03T21:43:43.720Z,0.86
2022-12-03T21:47:09.876Z,0.88
2022-12-03T21:49:03.496Z,0.87
2022-12-03T21:51:29.929Z,0.86
2022-12-03T21:53:56.281Z,0.85
2022-12-03T21:56:22.675Z,0.83
2022-12-03T21:58:49.042Z,0.86
2022-12-03T22:01:21.907Z,0.86
2022-12-03T22:03:49.016Z,0.86
2022-12-03T22:06:15.950Z,0.82
2022-12-03T22:08:43.196Z,0.84
2022-12-03T22:11:13.347Z,0.83
2022-12-03T22:13:40.855Z,0.84
2022-12-03T22:16:10.183Z,0.82
2022-12-03T22:18:36.584Z,0.80
2022-12-03T22:21:08.461Z,0.81
2022-12-03T22:23:34.918Z,0.82
2022-12-03T22:26:04.944Z,0.82
2022-12-03T22:28:31.607Z,0.81
2022-12-03T22:30:58.311Z,0.84
2022-12-03T22:33:25.016Z,0.84
2022-12-03T22:35:59.330Z,0.86
2022-12-03T22:38:26.424Z,0.85
2022-12-03T22:40:52.880Z,0.84
2022-12-03T22:43:19.772Z,0.84
2022-12-03T22:45:46.909Z,0.85
2022-12-03T22:48:13.956Z,0.80
2022-12-03T22:50:43.109Z,0.83
2022-12-03T22:53:09.590Z,0.85
2022-12-03T22:55:35.951Z,0.86
2022-12-03T22:58:02.792Z,0.86
2022-12-03T23:00:32.211Z,0.84
2022-12-03T23:02:58.659Z,0.85
2022-12-03T23:05:25.114Z,0.85
2022-12-03T23:07:52.070Z,0.89
2022-12-03T23:10:18.445Z,0.87
2022-12-03T23:12:44.807Z,0.85
2022-12-03T23:15:11.390Z,0.85
2022-12-03T23:17:37.722Z,0.86
2022-12-03T23:20:04.565Z,0.86
2022-12-03T23:22:30.922Z,0.85
2022-12-03T23:24:57.435Z,0.85
2022-12-03T23:27:23.941Z,0.81
2022-12-03T23:29:50.288Z,0.85
2022-12-03T23:32:16.638Z,0.84
2022-12-03T23:34:43.075Z,0.85
2022-12-03T23:37:09.865Z,0.88
2022-12-03T23:39:36.246Z,0.84
2022-12-03T23:42:03.725Z,0.82
2022-12-03T23:44:30.204Z,0.84
2022-12-03T23:46:56.761Z,0.84
2022-12-03T23:49:23.227Z,0.77
2022-12-03T23:51:49.615Z,0.78
2022-12-03T23:54:15.973Z,0.79
2022-12-03T23:56:42.327Z,0.81
2022-12-03T23:59:08.720Z,0.83
